Time;durP1;ratioP1;P1;durP2;ratioP2;P2;SDS_P1;SDS_P2;PMS_P1;PMS_P2;Temp;Humidity;BMP_temperature;BMP_pressure;BME280_temperature;BME280_humidity;BME280_pressure;Samples;Min_cycle;Max_cycle;Signal;HPM_P1;HPM_P2
2023/09/26 00:00:28;;;;;;;3.43;2.13;;;13.90;99.90;;;;;;4976800;28;20486;-80
2023/09/26 00:02:54;;;;;;;3.83;2.17;;;13.90;99.90;;;;;;4977500;28;20456;-79
2023/09/26 00:05:23;;;;;;;3.07;2.40;;;13.90;99.90;;;;;;4976787;28;20496;-80
2023/09/26 00:07:51;;;;;;;3.20;2.30;;;13.90;99.90;;;;;;4977209;28;20529;-80
2023/09/26 00:10:18;;;;;;;3.97;2.70;;;13.90;99.90;;;;;;4977308;28;20564;-78
2023/09/26 00:12:47;;;;;;;2.53;2.10;;;13.80;99.90;;;;;;4977644;28;20485;-79
2023/09/26 00:15:14;;;;;;;3.43;2.50;;;13.90;99.90;;;;;;4977265;28;20451;-79
2023/09/26 00:17:41;;;;;;;3.43;2.07;;;13.90;99.90;;;;;;4980053;28;20466;-79
2023/09/26 00:20:27;;;;;;;5.50;2.70;;;13.90;99.90;;;;;;4982048;28;20869;-78
2023/09/26 00:22:54;;;;;;;3.50;1.77;;;13.90;99.90;;;;;;4981800;28;20459;-79
2023/09/26 00:25:21;;;;;;;5.13;2.40;;;13.90;99.90;;;;;;4981498;28;20495;-79
2023/09/26 00:27:50;;;;;;;2.43;1.80;;;13.80;99.90;;;;;;4980781;28;20485;-80
2023/09/26 00:30:17;;;;;;;3.50;2.10;;;13.80;99.90;;;;;;4981394;28;20489;-80
2023/09/26 00:32:44;;;;;;;2.80;2.13;;;13.80;99.90;;;;;;4981165;28;20463;-79
2023/09/26 00:35:12;;;;;;;2.93;2.10;;;13.80;99.90;;;;;;4981852;28;20463;-80
2023/09/26 00:37:39;;;;;;;2.30;1.70;;;13.80;99.90;;;;;;4980891;28;20455;-79
2023/09/26 00:40:14;;;;;;;2.73;2.20;;;13.80;99.90;;;;;;4980929;28;20475;-79
2023/09/26 00:42:42;;;;;;;3.47;1.93;;;13.80;99.90;;;;;;4980987;28;20458;-79
2023/09/26 00:45:11;;;;;;;4.20;2.23;;;13.80;99.90;;;;;;4980617;28;20610;-79
2023/09/26 00:47:39;;;;;;;2.63;2.00;;;13.80;99.90;;;;;;4980806;28;20838;-79
2023/09/26 00:50:11;;;;;;;2.73;2.23;;;13.70;99.90;;;;;;4980938;28;20484;-80
2023/09/26 00:52:39;;;;;;;4.63;2.20;;;13.70;99.90;;;;;;4981088;28;20461;-80
2023/09/26 00:55:06;;;;;;;2.60;2.10;;;13.70;99.90;;;;;;4981697;28;20553;-80
2023/09/26 00:57:34;;;;;;;8.90;2.30;;;13.70;99.90;;;;;;4980579;28;20465;-80
2023/09/26 01:00:02;;;;;;;3.50;2.50;;;13.70;99.90;;;;;;4979895;28;20479;-80
2023/09/26 01:02:31;;;;;;;3.93;2.27;;;13.70;99.90;;;;;;4981051;28;20464;-79
2023/09/26 01:04:58;;;;;;;4.13;2.43;;;13.70;99.90;;;;;;4980870;28;20495;-80
2023/09/26 01:07:26;;;;;;;4.23;2.87;;;13.70;99.90;;;;;;4980236;28;20544;-80
2023/09/26 01:09:53;;;;;;;4.70;2.57;;;13.60;99.90;;;;;;4980292;28;20488;-79
2023/09/26 01:12:20;;;;;;;3.97;2.70;;;13.60;99.90;;;;;;4979167;28;20461;-80
2023/09/26 01:14:47;;;;;;;4.57;2.57;;;13.60;99.90;;;;;;4980504;28;20451;-80
2023/09/26 01:17:14;;;;;;;3.67;2.30;;;13.60;99.90;;;;;;4979932;28;20465;-80
2023/09/26 01:19:43;;;;;;;2.73;2.33;;;13.50;99.90;;;;;;4980172;28;20475;-80
2023/09/26 01:22:09;;;;;;;4.00;3.00;;;13.50;99.90;;;;;;4979499;28;20834;-80
2023/09/26 01:24:38;;;;;;;4.23;2.80;;;13.50;99.90;;;;;;4980103;28;20463;-79
2023/09/26 01:27:05;;;;;;;3.53;2.60;;;13.50;99.90;;;;;;4978367;28;20503;-80
2023/09/26 01:29:32;;;;;;;4.00;2.57;;;13.40;99.90;;;;;;4978714;28;20489;-80
2023/09/26 01:31:59;;;;;;;4.07;2.53;;;13.40;99.90;;;;;;4980077;28;20467;-80
2023/09/26 01:34:26;;;;;;;5.83;3.00;;;13.50;99.90;;;;;;4980426;28;20462;-79
2023/09/26 01:36:53;;;;;;;3.83;2.97;;;13.50;99.90;;;;;;4980095;28;20460;-80
2023/09/26 01:39:21;;;;;;;4.60;3.13;;;13.40;99.90;;;;;;4980488;28;20518;-80
2023/09/26 01:41:49;;;;;;;3.93;3.30;;;13.40;99.90;;;;;;4979659;28;20460;-80
2023/09/26 01:44:16;;;;;;;3.83;3.50;;;13.40;99.90;;;;;;4979993;28;20493;-79
2023/09/26 01:46:42;;;;;;;4.37;3.17;;;13.40;99.90;;;;;;4978171;28;20503;-79
2023/09/26 01:49:10;;;;;;;3.40;2.90;;;13.40;99.90;;;;;;4976917;28;20475;-79
2023/09/26 01:51:37;;;;;;;3.00;2.10;;;13.40;99.90;;;;;;4977060;28;20462;-80
2023/09/26 01:54:04;;;;;;;4.20;2.40;;;13.30;99.90;;;;;;4976645;28;20468;-80
2023/09/26 01:56:32;;;;;;;2.90;2.30;;;13.30;99.90;;;;;;4976995;28;20465;-80
2023/09/26 01:59:00;;;;;;;6.53;2.97;;;13.30;99.90;;;;;;4976824;28;20482;-82
2023/09/26 02:01:27;;;;;;;3.37;2.60;;;13.30;99.90;;;;;;4976986;28;20975;-78
2023/09/26 02:03:54;;;;;;;3.17;2.43;;;13.30;99.90;;;;;;4977286;28;20542;-80
2023/09/26 02:06:21;;;;;;;4.67;3.20;;;13.20;99.90;;;;;;4977138;28;20485;-80
2023/09/26 02:08:48;;;;;;;4.50;2.77;;;13.20;99.90;;;;;;4976462;28;20459;-80
2023/09/26 02:11:15;;;;;;;4.07;2.47;;;13.20;99.90;;;;;;4976543;28;20463;-80
2023/09/26 02:13:41;;;;;;;3.97;2.43;;;13.10;99.90;;;;;;4976541;28;20466;-80
2023/09/26 02:16:12;;;;;;;4.33;2.90;;;13.10;99.90;;;;;;4977273;28;20812;-79
2023/09/26 02:18:39;;;;;;;2.83;2.30;;;13.10;99.90;;;;;;4977384;28;20551;-78
2023/09/26 02:21:06;;;;;;;3.87;2.70;;;13.10;99.90;;;;;;4976462;28;20459;-79
2023/09/26 02:23:33;;;;;;;4.80;2.77;;;13.10;99.90;;;;;;4976130;28;20839;-78
2023/09/26 02:25:59;;;;;;;3.33;2.37;;;13.10;99.90;;;;;;4976199;28;20495;-79
2023/09/26 02:28:26;;;;;;;2.97;2.67;;;13.00;99.90;;;;;;4975460;28;20477;-79
2023/09/26 02:30:53;;;;;;;3.27;2.87;;;13.10;99.90;;;;;;4976357;28;20484;-78
2023/09/26 02:33:21;;;;;;;4.00;2.47;;;13.00;99.90;;;;;;4976764;28;21005;-78
2023/09/26 02:35:48;;;;;;;5.13;2.80;;;13.00;99.90;;;;;;4975982;28;20451;-79
2023/09/26 02:38:15;;;;;;;3.33;2.47;;;13.00;99.90;;;;;;4975974;28;20469;-80
2023/09/26 02:40:42;;;;;;;3.67;2.43;;;13.00;99.90;;;;;;4975407;28;21044;-79
2023/09/26 02:43:08;;;;;;;2.57;2.20;;;13.00;99.90;;;;;;4975796;28;20985;-78
2023/09/26 02:45:35;;;;;;;7.73;3.80;;;13.00;99.90;;;;;;4975968;28;20497;-79
2023/09/26 02:48:04;;;;;;;3.20;2.80;;;13.00;99.90;;;;;;4976164;28;20470;-78
2023/09/26 02:50:32;;;;;;;3.53;2.87;;;13.00;99.90;;;;;;4976080;28;20478;-79
2023/09/26 02:52:59;;;;;;;4.33;3.07;;;12.90;99.90;;;;;;4975585;28;20466;-80
2023/09/26 02:55:26;;;;;;;4.47;3.23;;;12.90;99.90;;;;;;4975768;28;20462;-78
2023/09/26 02:57:53;;;;;;;4.23;3.00;;;12.90;99.90;;;;;;4975481;28;20467;-80
2023/09/26 03:00:20;;;;;;;4.20;3.53;;;12.90;99.90;;;;;;4975779;28;20482;-79
2023/09/26 03:02:47;;;;;;;4.97;3.67;;;12.90;99.90;;;;;;4975989;28;20459;-80
2023/09/26 03:05:14;;;;;;;8.17;4.60;;;13.00;99.90;;;;;;4975843;28;20506;-80
2023/09/26 03:07:43;;;;;;;9.20;6.00;;;12.90;99.90;;;;;;4975484;28;20545;-80
2023/09/26 03:10:10;;;;;;;8.67;6.97;;;12.90;99.90;;;;;;4975775;28;20574;-80
2023/09/26 03:12:37;;;;;;;9.17;6.53;;;12.90;99.90;;;;;;4975671;28;20475;-80
2023/09/26 03:15:06;;;;;;;9.10;6.30;;;12.90;99.90;;;;;;4976139;28;20562;-79
2023/09/26 03:17:33;;;;;;;9.80;6.70;;;12.90;99.90;;;;;;4974985;28;20969;-81
2023/09/26 03:19:59;;;;;;;10.57;7.47;;;12.90;99.90;;;;;;4975593;28;20480;-79
2023/09/26 03:22:26;;;;;;;9.57;7.10;;;12.90;99.90;;;;;;4974993;28;20542;-78
2023/09/26 03:24:55;;;;;;;9.03;7.33;;;12.90;99.90;;;;;;4975483;28;20461;-80
2023/09/26 03:27:22;;;;;;;12.03;8.33;;;12.90;99.90;;;;;;4975043;28;20642;-79
2023/09/26 03:29:50;;;;;;;10.53;6.93;;;12.90;99.90;;;;;;4975205;28;20478;-80
2023/09/26 03:32:17;;;;;;;12.43;8.37;;;12.90;99.90;;;;;;4975179;28;20547;-80
2023/09/26 03:34:44;;;;;;;10.80;8.13;;;12.90;99.90;;;;;;4975726;28;20467;-80
2023/09/26 03:37:11;;;;;;;11.57;8.20;;;12.80;99.90;;;;;;4970503;28;20466;-80
2023/09/26 03:39:37;;;;;;;12.90;8.17;;;12.80;99.90;;;;;;4967370;28;20533;-79
2023/09/26 03:42:05;;;;;;;11.70;8.67;;;12.80;99.90;;;;;;4974475;28;20465;-79
2023/09/26 03:44:32;;;;;;;12.33;9.43;;;12.80;99.90;;;;;;4972877;28;20452;-78
2023/09/26 03:46:59;;;;;;;12.67;8.80;;;12.70;99.90;;;;;;4975352;28;20510;-80
2023/09/26 03:49:26;;;;;;;11.93;8.27;;;12.70;99.90;;;;;;4976599;28;20479;-79
2023/09/26 03:51:53;;;;;;;11.90;8.50;;;12.70;99.90;;;;;;4978128;28;20452;-80
2023/09/26 03:54:20;;;;;;;12.13;9.60;;;12.70;99.90;;;;;;4975850;28;20514;-79
2023/09/26 03:56:47;;;;;;;11.83;8.60;;;12.70;99.90;;;;;;4979151;28;20454;-80
2023/09/26 03:59:16;;;;;;;12.83;8.87;;;12.70;99.90;;;;;;4973103;28;20479;-80
2023/09/26 04:01:43;;;;;;;12.07;7.90;;;12.70;99.90;;;;;;4979931;28;20466;-80
2023/09/26 04:04:10;;;;;;;11.43;8.57;;;12.70;99.90;;;;;;4979715;28;20483;-79
2023/09/26 04:06:37;;;;;;;14.23;8.57;;;12.70;99.90;;;;;;4979203;28;20494;-80
2023/09/26 04:09:04;;;;;;;9.43;7.70;;;12.70;99.90;;;;;;4973593;28;20486;-81
2023/09/26 04:11:31;;;;;;;13.30;6.97;;;12.70;99.90;;;;;;4973869;28;20982;-79
2023/09/26 04:13:58;;;;;;;9.07;7.23;;;12.70;99.90;;;;;;4978516;28;20476;-80
2023/09/26 04:16:26;;;;;;;8.20;6.90;;;12.70;99.90;;;;;;4977741;28;20454;-81
2023/09/26 04:18:53;;;;;;;9.07;6.87;;;12.70;99.90;;;;;;4969872;28;20464;-80
2023/09/26 04:21:19;;;;;;;10.90;7.50;;;12.70;99.90;;;;;;4979875;28;20450;-81
2023/09/26 04:23:46;;;;;;;9.00;6.93;;;12.70;99.90;;;;;;4980284;28;20464;-81
2023/09/26 04:26:15;;;;;;;13.23;7.40;;;12.70;99.90;;;;;;4979658;28;20505;-80
2023/09/26 04:28:42;;;;;;;10.97;7.87;;;12.70;99.90;;;;;;4979375;28;20552;-81
2023/09/26 04:31:13;;;;;;;13.03;7.53;;;12.70;99.90;;;;;;4980362;28;20522;-80
2023/09/26 04:33:41;;;;;;;10.40;8.23;;;12.70;99.90;;;;;;4980294;28;20469;-81
2023/09/26 04:36:08;;;;;;;9.13;7.27;;;12.60;99.90;;;;;;4980135;28;20469;-79
2023/09/26 04:38:36;;;;;;;9.10;7.07;;;12.60;99.90;;;;;;4979595;28;20465;-81
2023/09/26 04:41:03;;;;;;;9.77;7.43;;;12.60;99.90;;;;;;4980643;28;20566;-79
2023/09/26 04:43:30;;;;;;;9.63;6.53;;;12.60;99.90;;;;;;4980004;28;20458;-81
2023/09/26 04:45:57;;;;;;;9.70;7.00;;;12.60;99.90;;;;;;4980723;28;20487;-81
2023/09/26 04:48:24;;;;;;;10.13;7.40;;;12.60;99.90;;;;;;4979277;28;20469;-81
2023/09/26 04:50:52;;;;;;;14.07;8.10;;;12.60;99.90;;;;;;4977910;28;20491;-80
2023/09/26 04:53:19;;;;;;;8.87;6.67;;;12.50;99.90;;;;;;4976423;28;20469;-80
2023/09/26 04:55:46;;;;;;;7.27;6.20;;;12.50;99.90;;;;;;4978536;28;20470;-80
2023/09/26 04:58:12;;;;;;;8.33;7.07;;;12.60;99.90;;;;;;4975421;28;20604;-80
2023/09/26 05:00:39;;;;;;;7.63;6.67;;;12.60;99.90;;;;;;4978224;28;20476;-80
2023/09/26 05:03:06;;;;;;;8.70;7.27;;;12.60;99.90;;;;;;4975565;28;20462;-79
2023/09/26 05:05:33;;;;;;;7.40;6.70;;;12.60;99.90;;;;;;4976330;28;20454;-80
2023/09/26 05:08:01;;;;;;;10.77;7.20;;;12.60;99.90;;;;;;4974392;28;20456;-78
2023/09/26 05:10:28;;;;;;;11.00;7.30;;;12.50;99.90;;;;;;4963479;28;21003;-79
2023/09/26 05:12:54;;;;;;;9.23;6.90;;;12.50;99.90;;;;;;4970238;28;20466;-80
2023/09/26 05:15:21;;;;;;;8.93;6.40;;;12.50;99.90;;;;;;4973856;28;20846;-80
2023/09/26 05:17:49;;;;;;;7.70;6.30;;;12.50;99.90;;;;;;4975281;28;20481;-80
2023/09/26 05:20:17;;;;;;;9.67;6.33;;;12.50;99.90;;;;;;4976498;28;20495;-81
2023/09/26 05:22:45;;;;;;;8.87;6.63;;;12.50;99.90;;;;;;4977792;28;20470;-80
2023/09/26 05:25:14;;;;;;;6.20;5.60;;;12.50;99.90;;;;;;4977964;28;20474;-81
2023/09/26 05:27:43;;;;;;;7.13;5.63;;;12.40;99.90;;;;;;4978090;28;20505;-81
2023/09/26 05:30:11;;;;;;;7.13;5.53;;;12.40;99.90;;;;;;4974547;28;20479;-80
2023/09/26 05:32:38;;;;;;;8.63;6.10;;;12.40;99.90;;;;;;4977414;28;20976;-80
2023/09/26 05:35:07;;;;;;;11.07;7.00;;;12.50;99.90;;;;;;4977977;28;20467;-81
2023/09/26 05:37:33;;;;;;;6.70;6.00;;;12.50;99.90;;;;;;4977089;28;20461;-81
2023/09/26 05:40:00;;;;;;;8.30;5.73;;;12.50;99.90;;;;;;4976621;28;20527;-79
2023/09/26 05:42:28;;;;;;;9.10;5.63;;;12.40;99.90;;;;;;4977096;28;20453;-80
2023/09/26 05:44:56;;;;;;;6.40;5.10;;;12.40;99.90;;;;;;4975502;28;20466;-80
2023/09/26 05:47:22;;;;;;;8.50;6.27;;;12.50;99.90;;;;;;4976428;28;21011;-79
2023/09/26 05:49:50;;;;;;;8.33;4.90;;;12.50;99.90;;;;;;4978255;28;20491;-81
2023/09/26 05:52:18;;;;;;;6.70;5.40;;;12.50;99.90;;;;;;4978229;28;20471;-79
2023/09/26 05:54:45;;;;;;;9.73;6.23;;;12.50;99.90;;;;;;4979444;28;20834;-79
2023/09/26 05:57:11;;;;;;;6.60;5.43;;;12.50;99.90;;;;;;4979267;28;20846;-80
2023/09/26 05:59:40;;;;;;;5.97;4.60;;;12.50;99.90;;;;;;4977821;28;20479;-79
2023/09/26 06:02:09;;;;;;;7.20;5.10;;;12.60;99.90;;;;;;4986950;28;20470;-80
2023/09/26 06:04:35;;;;;;;6.00;5.00;;;12.60;99.90;;;;;;4978717;28;20462;-80
2023/09/26 06:07:02;;;;;;;6.70;4.80;;;12.60;99.90;;;;;;4972916;28;20497;-80
2023/09/26 06:09:30;;;;;;;5.07;4.43;;;12.70;99.90;;;;;;4973198;28;20498;-79
2023/09/26 06:11:57;;;;;;;7.07;5.07;;;12.70;99.90;;;;;;4983169;28;20532;-80
2023/09/26 06:14:24;;;;;;;6.90;5.20;;;12.80;99.90;;;;;;4977433;28;20961;-79
2023/09/26 06:16:52;;;;;;;6.97;4.47;;;12.80;99.90;;;;;;4976605;28;20843;-79
2023/09/26 06:19:19;;;;;;;5.23;4.73;;;12.80;99.90;;;;;;4981718;28;20489;-79
2023/09/26 06:21:46;;;;;;;6.30;4.80;;;12.90;99.90;;;;;;4977498;28;21332;-81
2023/09/26 06:24:12;;;;;;;5.83;4.40;;;13.00;99.90;;;;;;4975119;28;20998;-81
2023/09/26 06:26:39;;;;;;;7.20;4.50;;;13.00;99.90;;;;;;4977569;28;21042;-81
2023/09/26 06:29:06;;;;;;;5.63;4.30;;;13.10;99.90;;;;;;4976341;28;20506;-81
2023/09/26 06:31:33;;;;;;;6.57;4.00;;;13.10;99.90;;;;;;4977351;28;20461;-82
2023/09/26 06:34:01;;;;;;;5.33;4.80;;;13.20;99.90;;;;;;4976657;28;20984;-81
2023/09/26 06:36:30;;;;;;;6.80;4.30;;;13.20;99.90;;;;;;4977467;28;20460;-81
2023/09/26 06:38:57;;;;;;;5.30;4.80;;;13.30;99.90;;;;;;4981658;28;20491;-80
2023/09/26 06:41:24;;;;;;;7.03;5.53;;;13.30;99.90;;;;;;4975162;28;20469;-82
2023/09/26 06:43:51;;;;;;;9.60;5.20;;;13.40;99.90;;;;;;4975637;28;20489;-80
2023/09/26 06:46:18;;;;;;;7.77;6.47;;;13.50;99.90;;;;;;4973998;28;20526;-81
2023/09/26 06:48:45;;;;;;;5.33;4.83;;;13.50;99.90;;;;;;4981254;28;20460;-80
2023/09/26 06:51:13;;;;;;;6.50;5.50;;;13.50;99.90;;;;;;4981924;28;20536;-81
2023/09/26 06:53:40;;;;;;;7.80;5.30;;;13.60;99.90;;;;;;4976572;28;20458;-80
2023/09/26 06:56:08;;;;;;;11.13;5.30;;;13.60;99.90;;;;;;4976798;28;20466;-80
2023/09/26 06:58:36;;;;;;;5.50;4.97;;;13.70;99.90;;;;;;4973953;28;20481;-80
2023/09/26 07:01:03;;;;;;;8.07;6.20;;;13.70;99.90;;;;;;4970594;28;20547;-81
2023/09/26 07:03:32;;;;;;;11.20;6.70;;;13.70;99.90;;;;;;4975802;28;20467;-80
2023/09/26 07:05:58;;;;;;;8.00;6.13;;;13.80;99.90;;;;;;4975459;28;20461;-79
2023/09/26 07:08:27;;;;;;;5.67;5.10;;;13.80;99.90;;;;;;4976624;28;20486;-80
2023/09/26 07:10:53;;;;;;;6.43;4.77;;;13.90;99.90;;;;;;4974981;28;20483;-79
2023/09/26 07:13:20;;;;;;;6.40;5.03;;;14.00;99.90;;;;;;4982002;28;20457;-79
2023/09/26 07:15:47;;;;;;;7.37;5.30;;;14.00;99.90;;;;;;4972759;28;20466;-81
2023/09/26 07:18:14;;;;;;;6.77;4.90;;;14.10;99.90;;;;;;4972640;28;20452;-80
2023/09/26 07:20:47;;;;;;;7.60;4.83;;;14.10;99.90;;;;;;4974620;28;20482;-79
2023/09/26 07:23:14;;;;;;;10.67;5.73;;;14.20;99.90;;;;;;4971544;28;20465;-79
2023/09/26 07:25:42;;;;;;;8.50;4.40;;;14.30;99.90;;;;;;4966399;28;20535;-79
2023/09/26 07:28:10;;;;;;;6.13;4.30;;;14.40;99.90;;;;;;4974611;28;20497;-80
2023/09/26 07:30:37;;;;;;;7.20;4.77;;;14.50;99.90;;;;;;4975254;28;20538;-79
2023/09/26 07:33:05;;;;;;;5.83;3.87;;;14.60;99.90;;;;;;4974975;28;20551;-79
2023/09/26 07:35:32;;;;;;;5.87;4.70;;;14.60;99.90;;;;;;4967134;28;20465;-79
2023/09/26 07:37:59;;;;;;;6.83;5.00;;;14.70;99.90;;;;;;4973502;28;20464;-79
2023/09/26 07:40:26;;;;;;;9.20;4.40;;;14.80;99.90;;;;;;4974379;28;20573;-78
2023/09/26 07:42:55;;;;;;;5.80;3.90;;;14.90;99.90;;;;;;4973881;28;20468;-80
2023/09/26 07:45:21;;;;;;;7.00;4.80;;;15.00;99.90;;;;;;4972006;28;20475;-80
2023/09/26 07:47:48;;;;;;;6.40;4.00;;;15.00;99.90;;;;;;4971681;28;20497;-80
2023/09/26 07:50:14;;;;;;;7.00;3.70;;;15.10;99.90;;;;;;4964239;28;20486;-79
2023/09/26 07:52:41;;;;;;;7.57;3.90;;;15.20;99.90;;;;;;4973484;28;20534;-80
2023/09/26 07:55:09;;;;;;;4.70;3.60;;;15.30;99.90;;;;;;4974433;28;20486;-80
2023/09/26 07:57:36;;;;;;;5.40;4.10;;;15.40;99.90;;;;;;4976717;28;21021;-80
2023/09/26 08:00:11;;;;;;;4.47;3.60;;;15.40;99.90;;;;;;4970310;28;20487;-79
2023/09/26 08:02:37;;;;;;;4.70;3.33;;;15.50;99.90;;;;;;4974099;28;20466;-80
2023/09/26 08:05:06;;;;;;;5.23;3.63;;;15.60;99.90;;;;;;4980432;28;20463;-80
2023/09/26 08:07:33;;;;;;;7.07;4.57;;;15.70;99.90;;;;;;4975578;28;20494;-80
2023/09/26 08:10:01;;;;;;;5.93;3.20;;;15.80;99.90;;;;;;4970883;28;20566;-80
2023/09/26 08:12:29;;;;;;;7.30;4.10;;;15.90;99.90;;;;;;4972056;28;20860;-80
2023/09/26 08:14:56;;;;;;;5.83;3.00;;;16.00;99.90;;;;;;4971984;28;20462;-80
2023/09/26 08:17:25;;;;;;;4.30;2.63;;;16.10;99.90;;;;;;4973785;28;20465;-80
2023/09/26 08:19:51;;;;;;;5.80;2.80;;;16.20;99.90;;;;;;4976201;28;20851;-80
2023/09/26 08:22:18;;;;;;;4.00;3.07;;;16.40;99.90;;;;;;4977652;28;20451;-79
2023/09/26 08:24:45;;;;;;;4.07;2.90;;;16.50;99.90;;;;;;4977731;28;20444;-80
2023/09/26 08:27:12;;;;;;;3.80;2.90;;;16.60;99.90;;;;;;4978106;28;20636;-80
2023/09/26 08:29:39;;;;;;;2.97;2.47;;;16.70;99.90;;;;;;4981889;28;20478;-80
2023/09/26 08:32:06;;;;;;;3.83;2.97;;;16.80;99.90;;;;;;4975332;28;20849;-79
2023/09/26 08:34:34;;;;;;;3.37;2.90;;;16.90;99.90;;;;;;4974397;28;20471;-79
2023/09/26 08:37:00;;;;;;;3.83;2.40;;;17.00;99.90;;;;;;4974884;28;20459;-79
2023/09/26 08:39:27;;;;;;;4.20;2.83;;;17.10;99.90;;;;;;4985251;28;20478;-80
2023/09/26 08:41:55;;;;;;;4.40;3.07;;;17.30;99.90;;;;;;4980989;28;20456;-80
2023/09/26 08:44:22;;;;;;;3.70;2.40;;;17.30;99.90;;;;;;4971195;28;20483;-80
2023/09/26 08:46:49;;;;;;;2.97;2.37;;;17.50;99.90;;;;;;4977533;28;20849;-79
2023/09/26 08:49:16;;;;;;;3.70;2.20;;;17.50;99.90;;;;;;4975822;28;20554;-79
2023/09/26 08:51:44;;;;;;;2.97;2.43;;;17.60;99.90;;;;;;4978096;28;21041;-81
2023/09/26 08:54:10;;;;;;;2.90;2.20;;;17.70;99.90;;;;;;4974975;28;20461;-80
2023/09/26 08:56:37;;;;;;;3.20;2.30;;;17.80;99.90;;;;;;4976617;28;20472;-81
2023/09/26 08:59:06;;;;;;;4.40;2.60;;;17.90;99.90;;;;;;4975455;28;20556;-80
2023/09/26 09:01:34;;;;;;;4.63;2.23;;;18.00;99.90;;;;;;4978390;28;20560;-79
2023/09/26 09:04:01;;;;;;;4.07;2.57;;;18.00;99.90;;;;;;4976542;28;20467;-80
2023/09/26 09:06:28;;;;;;;3.50;2.60;;;18.20;99.90;;;;;;4977454;28;20460;-78
2023/09/26 09:09:09;;;;;;;3.10;2.23;;;18.30;99.90;;;;;;4974100;28;20486;-80
2023/09/26 09:11:35;;;;;;;3.03;1.97;;;18.50;99.90;;;;;;4974569;28;20968;-80
2023/09/26 09:14:02;;;;;;;3.30;2.57;;;18.60;99.90;;;;;;4977261;28;20531;-81
2023/09/26 09:16:29;;;;;;;4.00;2.40;;;18.70;99.90;;;;;;4978952;28;20547;-79
2023/09/26 09:18:58;;;;;;;3.07;2.03;;;18.80;99.90;;;;;;4978343;28;20987;-80
2023/09/26 09:21:27;;;;;;;3.90;2.20;;;19.00;99.90;;;;;;4978534;28;20460;-79
2023/09/26 09:23:55;;;;;;;2.93;2.27;;;19.20;99.90;;;;;;4975967;28;20487;-80
2023/09/26 09:26:24;;;;;;;2.77;1.80;;;19.40;99.90;;;;;;4985775;28;20459;-80
2023/09/26 09:28:52;;;;;;;5.73;2.20;;;19.60;99.90;;;;;;4975674;28;20490;-80
2023/09/26 09:31:19;;;;;;;4.20;2.53;;;19.80;99.90;;;;;;4974471;28;20478;-79
2023/09/26 09:33:47;;;;;;;5.40;2.53;;;19.90;99.90;;;;;;4969811;28;20451;-80
2023/09/26 09:36:14;;;;;;;4.77;2.13;;;20.00;99.90;;;;;;4979766;28;20832;-79
2023/09/26 09:38:41;;;;;;;3.60;2.10;;;20.10;99.90;;;;;;4977594;28;21109;-80
2023/09/26 09:41:08;;;;;;;4.87;1.90;;;20.20;99.90;;;;;;4979781;28;20459;-79
2023/09/26 09:43:37;;;;;;;2.83;1.83;;;20.30;99.90;;;;;;4978214;28;20459;-81
2023/09/26 09:46:08;;;;;;;3.53;1.90;;;20.50;99.90;;;;;;4979127;28;20522;-81
2023/09/26 09:48:42;;;;;;;3.40;1.67;;;20.60;99.90;;;;;;4977344;28;20491;-80
2023/09/26 09:51:11;;;;;;;4.90;2.23;;;20.70;99.90;;;;;;4976979;28;20455;-78
2023/09/26 09:53:40;;;;;;;2.63;2.00;;;20.80;99.90;;;;;;4980281;28;20463;-79
2023/09/26 09:56:08;;;;;;;2.40;1.80;;;21.20;99.90;;;;;;4978854;28;20495;-79
2023/09/26 09:58:41;;;;;;;2.90;1.30;;;21.40;99.90;;;;;;4979983;28;20543;-79
2023/09/26 10:01:08;;;;;;;2.70;1.80;;;21.60;99.90;;;;;;4974468;28;20468;-82
2023/09/26 10:03:36;;;;;;;3.40;1.83;;;21.80;99.90;;;;;;4979804;28;20559;-79
2023/09/26 10:06:08;;;;;;;3.33;2.20;;;22.10;99.90;;;;;;4980634;28;20462;-80
2023/09/26 10:08:36;;;;;;;3.10;1.90;;;22.40;99.90;;;;;;4980764;28;20991;-79
2023/09/26 10:11:05;;;;;;;3.00;2.00;;;22.70;99.90;;;;;;4983502;28;20877;-80
2023/09/26 10:13:32;;;;;;;3.70;2.17;;;22.90;99.90;;;;;;4979775;28;20483;-80
2023/09/26 10:16:11;;;;;;;4.43;2.10;;;23.10;99.90;;;;;;4983792;28;20455;-80
2023/09/26 10:18:39;;;;;;;2.00;1.40;;;23.30;99.90;;;;;;4985463;28;20888;-80
2023/09/26 10:21:23;;;;;;;4.37;2.33;;;23.60;99.90;;;;;;4978324;28;20491;-81
2023/09/26 10:24:29;;;;;;;3.27;2.00;;;23.90;99.90;;;;;;4983863;28;20938;-80
2023/09/26 10:26:59;;;;;;;3.23;2.23;;;24.30;99.90;;;;;;4979257;28;20483;-80
2023/09/26 10:29:27;;;;;;;4.87;2.20;;;24.60;99.90;;;;;;4981287;28;20935;-80
2023/09/26 10:31:58;;;;;;;3.30;1.80;;;25.00;99.90;;;;;;4975936;28;20470;-80
2023/09/26 10:34:27;;;;;;;3.33;1.70;;;25.40;99.90;;;;;;4978443;28;20817;-80
2023/09/26 10:36:55;;;;;;;3.43;1.73;;;25.50;99.90;;;;;;4976028;28;21074;-81
2023/09/26 10:39:33;;;;;;;3.63;2.10;;;25.60;99.90;;;;;;4979987;28;20540;-80
2023/09/26 10:42:02;;;;;;;3.50;1.77;;;25.80;99.90;;;;;;4975308;28;20455;-80
2023/09/26 10:44:28;;;;;;;4.07;1.70;;;26.00;99.90;;;;;;4982344;28;20466;-82
2023/09/26 10:46:57;;;;;;;2.87;1.80;;;26.30;99.90;;;;;;4981503;28;20482;-80
2023/09/26 10:49:25;;;;;;;3.27;1.97;;;26.40;99.90;;;;;;4976987;28;20488;-81
2023/09/26 10:51:51;;;;;;;4.53;1.50;;;26.40;99.90;;;;;;4981400;28;20484;-81
2023/09/26 10:54:18;;;;;;;4.60;1.87;;;26.50;99.90;;;;;;4981536;28;20540;-81
2023/09/26 10:56:48;;;;;;;3.37;2.07;;;26.70;99.90;;;;;;4983923;28;20828;-80
2023/09/26 10:59:18;;;;;;;2.93;2.07;;;26.50;99.90;;;;;;4985947;28;20466;-81
2023/09/26 11:01:45;;;;;;;3.03;1.77;;;26.50;99.90;;;;;;4984562;28;20456;-81
2023/09/26 11:04:13;;;;;;;4.00;1.70;;;26.60;99.90;;;;;;4981885;28;20458;-81
2023/09/26 11:06:41;;;;;;;2.97;1.70;;;26.60;99.90;;;;;;4982676;28;20487;-81
2023/09/26 11:09:08;;;;;;;5.50;1.77;;;26.50;99.90;;;;;;4982988;28;20513;-81
2023/09/26 11:11:35;;;;;;;4.07;2.23;;;26.60;99.90;;;;;;4978932;28;20460;-81
2023/09/26 11:14:02;;;;;;;3.20;2.03;;;27.00;99.90;;;;;;4983912;28;20905;-82
2023/09/26 11:16:30;;;;;;;2.63;1.50;;;27.10;99.90;;;;;;4977828;28;20562;-82
2023/09/26 11:18:57;;;;;;;2.40;1.77;;;27.20;99.90;;;;;;4978572;28;20530;-80
2023/09/26 11:21:25;;;;;;;3.30;1.80;;;27.10;99.90;;;;;;4980131;28;20455;-82
2023/09/26 11:23:52;;;;;;;2.90;1.60;;;27.40;99.90;;;;;;4976400;28;20477;-81
2023/09/26 11:26:19;;;;;;;3.30;1.83;;;27.70;99.90;;;;;;4975957;28;20881;-82
2023/09/26 11:28:46;;;;;;;1.93;1.30;;;27.70;99.90;;;;;;4970512;28;20494;-80
2023/09/26 11:31:15;;;;;;;3.20;2.00;;;27.40;99.90;;;;;;4986791;28;20482;-82
2023/09/26 11:33:42;;;;;;;2.23;1.40;;;27.10;99.90;;;;;;4981792;28;20467;-82
2023/09/26 11:36:11;;;;;;;2.50;1.97;;;27.00;99.90;;;;;;4980141;28;20478;-80
2023/09/26 11:38:48;;;;;;;2.93;1.53;;;27.20;99.90;;;;;;4982512;28;20450;-81
2023/09/26 11:41:15;;;;;;;2.87;1.57;;;27.40;99.90;;;;;;4979541;28;20466;-82
2023/09/26 11:43:43;;;;;;;2.80;1.67;;;27.90;99.90;;;;;;4971399;28;20543;-81
2023/09/26 11:46:10;;;;;;;2.90;1.43;;;27.90;99.90;;;;;;4975131;28;20525;-82
2023/09/26 11:48:37;;;;;;;2.50;1.43;;;27.90;93.40;;;;;;4973611;28;20499;-83
2023/09/26 11:51:04;;;;;;;4.53;1.53;;;27.90;99.90;;;;;;4980919;28;20554;-81
2023/09/26 11:53:31;;;;;;;3.00;1.80;;;27.70;93.30;;;;;;4974595;28;20459;-80
2023/09/26 11:56:00;;;;;;;3.87;1.47;;;28.00;97.50;;;;;;4969237;28;20523;-81
2023/09/26 11:58:27;;;;;;;2.67;1.40;;;28.40;96.90;;;;;;4976673;28;20463;-80
2023/09/26 12:00:54;;;;;;;2.47;1.30;;;28.60;96.40;;;;;;4980423;28;20479;-81
2023/09/26 12:03:21;;;;;;;3.00;1.67;;;28.80;96.70;;;;;;4976924;28;20463;-81
2023/09/26 12:05:48;;;;;;;2.60;1.33;;;28.60;94.50;;;;;;4966472;28;20487;-80
2023/09/26 12:08:16;;;;;;;1.90;1.23;;;28.90;97.10;;;;;;4973577;28;20486;-81
2023/09/26 12:10:43;;;;;;;2.77;1.43;;;29.20;93.80;;;;;;4977878;28;20495;-79
2023/09/26 12:13:11;;;;;;;2.30;1.20;;;29.10;94.30;;;;;;4980265;28;20455;-80
2023/09/26 12:15:38;;;;;;;3.43;1.90;;;29.30;92.30;;;;;;4985903;28;20530;-79
2023/09/26 12:18:06;;;;;;;2.10;1.30;;;29.30;94.00;;;;;;4978575;28;20447;-80
2023/09/26 12:20:32;;;;;;;2.30;1.60;;;29.50;93.00;;;;;;4980399;28;20538;-80
2023/09/26 12:22:59;;;;;;;2.30;1.30;;;29.60;94.70;;;;;;4982328;28;20969;-80
2023/09/26 12:25:28;;;;;;;2.17;1.13;;;29.20;92.00;;;;;;4983000;28;20460;-79
2023/09/26 12:27:55;;;;;;;2.60;1.50;;;29.40;92.40;;;;;;4976874;28;20455;-81
2023/09/26 12:30:23;;;;;;;2.90;1.20;;;29.40;91.30;;;;;;4979456;28;20570;-80
2023/09/26 12:32:50;;;;;;;4.40;1.50;;;29.70;90.40;;;;;;4984449;28;20909;-80
2023/09/26 12:35:17;;;;;;;3.13;1.50;;;29.30;81.90;;;;;;4981526;28;20477;-80
2023/09/26 12:37:45;;;;;;;2.57;1.40;;;29.10;83.30;;;;;;4983721;28;20545;-81
2023/09/26 12:40:13;;;;;;;2.47;1.50;;;29.20;91.50;;;;;;4984507;28;20481;-81
2023/09/26 12:42:41;;;;;;;2.50;1.63;;;29.40;91.00;;;;;;4984119;28;20471;-81
2023/09/26 12:45:09;;;;;;;2.40;1.40;;;29.00;87.80;;;;;;4974115;28;20456;-81
2023/09/26 12:47:37;;;;;;;2.10;1.30;;;29.10;91.70;;;;;;4980946;28;20451;-81